sensor_id;sensor_type;location;lat;lon;timestamp;pressure;altitude;pressure_sealevel;temperature;humidity
9110;BME280;4590;51.462;6.692;2022-10-16T00:00:39;100864.03;;;15.85;72.07
9110;BME280;4590;51.462;6.692;2022-10-16T00:03:05;100868.41;;;15.86;71.85
9110;BME280;4590;51.462;6.692;2022-10-16T00:05:31;100863.22;;;15.85;71.95
9110;BME280;4590;51.462;6.692;2022-10-16T00:07:56;100861.91;;;15.82;72.05
9110;BME280;4590;51.462;6.692;2022-10-16T00:10:22;100866.66;;;15.82;71.99
9110;BME280;4590;51.462;6.692;2022-10-16T00:12:48;100861.44;;;15.80;71.92
9110;BME280;4590;51.462;6.692;2022-10-16T00:15:13;100866.19;;;15.79;72.06
9110;BME280;4590;51.462;6.692;2022-10-16T00:17:39;100870.09;;;15.78;72.17
9110;BME280;4590;51.462;6.692;2022-10-16T00:20:05;100873.69;;;15.79;72.10
9110;BME280;4590;51.462;6.692;2022-10-16T00:22:30;100881.53;;;15.77;72.28
9110;BME280;4590;51.462;6.692;2022-10-16T00:24:56;100867.66;;;15.77;72.19
9110;BME280;4590;51.462;6.692;2022-10-16T00:27:21;100879.91;;;15.76;72.00
9110;BME280;4590;51.462;6.692;2022-10-16T00:29:50;100884.19;;;15.73;72.04
9110;BME280;4590;51.462;6.692;2022-10-16T00:32:16;100877.47;;;15.74;72.11
9110;BME280;4590;51.462;6.692;2022-10-16T00:34:41;100876.69;;;15.74;72.41
9110;BME280;4590;51.462;6.692;2022-10-16T00:37:07;100871.47;;;15.72;72.16
9110;BME280;4590;51.462;6.692;2022-10-16T00:39:32;100869.69;;;15.68;72.17
9110;BME280;4590;51.462;6.692;2022-10-16T00:41:57;100870.19;;;15.70;72.35
9110;BME280;4590;51.462;6.692;2022-10-16T00:44:52;100867.94;;;15.63;72.39
9110;BME280;4590;51.462;6.692;2022-10-16T00:47:24;100873.63;;;15.67;72.10
9110;BME280;4590;51.462;6.692;2022-10-16T00:49:56;100879.97;;;15.67;72.28
9110;BME280;4590;51.462;6.692;2022-10-16T00:52:23;100861.72;;;15.66;72.29
9110;BME280;4590;51.462;6.692;2022-10-16T00:54:49;100861.72;;;15.66;72.31
9110;BME280;4590;51.462;6.692;2022-10-16T00:57:16;100855.34;;;15.66;72.15
9110;BME280;4590;51.462;6.692;2022-10-16T00:59:41;100870.03;;;15.66;72.20
9110;BME280;4590;51.462;6.692;2022-10-16T01:02:11;100863.19;;;15.64;72.19
9110;BME280;4590;51.462;6.692;2022-10-16T01:04:40;100873.47;;;15.63;72.12
9110;BME280;4590;51.462;6.692;2022-10-16T01:07:32;100863.75;;;15.57;72.11
9110;BME280;4590;51.462;6.692;2022-10-16T01:13:12;100877.13;;;15.55;72.28
9110;BME280;4590;51.462;6.692;2022-10-16T01:15:42;100872.50;;;15.59;72.12
9110;BME280;4590;51.462;6.692;2022-10-16T01:18:14;100865.19;;;15.55;72.02
9110;BME280;4590;51.462;6.692;2022-10-16T01:21:01;100872.72;;;15.54;72.32
9110;BME280;4590;51.462;6.692;2022-10-16T01:23:38;100876.16;;;15.51;72.05
9110;BME280;4590;51.462;6.692;2022-10-16T01:31:11;100880.53;;;15.52;72.40
9110;BME280;4590;51.462;6.692;2022-10-16T01:33:42;100874.50;;;15.50;72.32
9110;BME280;4590;51.462;6.692;2022-10-16T01:36:15;100882.34;;;15.48;72.19
9110;BME280;4590;51.462;6.692;2022-10-16T01:38:43;100878.09;;;15.51;72.25
9110;BME280;4590;51.462;6.692;2022-10-16T01:41:15;100874.84;;;15.49;72.28
9110;BME280;4590;51.462;6.692;2022-10-16T01:43:46;100857.06;;;15.50;72.42
9110;BME280;4590;51.462;6.692;2022-10-16T01:46:14;100855.59;;;15.52;72.72
9110;BME280;4590;51.462;6.692;2022-10-16T01:48:41;100861.13;;;15.52;72.61
9110;BME280;4590;51.462;6.692;2022-10-16T01:51:10;100865.25;;;15.46;72.72
9110;BME280;4590;51.462;6.692;2022-10-16T01:53:37;100863.91;;;15.52;72.80
9110;BME280;4590;51.462;6.692;2022-10-16T01:56:07;100862.28;;;15.51;72.46
9110;BME280;4590;51.462;6.692;2022-10-16T01:58:36;100858.34;;;15.52;72.41
9110;BME280;4590;51.462;6.692;2022-10-16T02:01:04;100868.16;;;15.50;72.59
9110;BME280;4590;51.462;6.692;2022-10-16T02:03:34;100874.50;;;15.50;72.32
9110;BME280;4590;51.462;6.692;2022-10-16T02:06:01;100890.69;;;15.48;72.37
9110;BME280;4590;51.462;6.692;2022-10-16T02:08:28;100882.69;;;15.47;72.43
9110;BME280;4590;51.462;6.692;2022-10-16T02:10:58;100892.81;;;15.42;72.39
9110;BME280;4590;51.462;6.692;2022-10-16T02:13:39;100893.19;;;15.41;72.31
9110;BME280;4590;51.462;6.692;2022-10-16T02:16:08;100887.41;;;15.46;72.27
9110;BME280;4590;51.462;6.692;2022-10-16T02:18:34;100891.34;;;15.45;72.22
9110;BME280;4590;51.462;6.692;2022-10-16T02:21:04;100895.59;;;15.42;72.35
9110;BME280;4590;51.462;6.692;2022-10-16T02:23:43;100889.13;;;15.38;72.03
9110;BME280;4590;51.462;6.692;2022-10-16T02:26:13;100888.78;;;15.40;72.25
9110;BME280;4590;51.462;6.692;2022-10-16T02:28:45;100889.59;;;15.40;72.13
9110;BME280;4590;51.462;6.692;2022-10-16T02:31:16;100898.38;;;15.42;72.11
9110;BME280;4590;51.462;6.692;2022-10-16T02:33:45;100895.97;;;15.41;72.33
9110;BME280;4590;51.462;6.692;2022-10-16T02:36:11;100894.66;;;15.38;72.52
9110;BME280;4590;51.462;6.692;2022-10-16T02:38:37;100887.50;;;15.37;72.19
9110;BME280;4590;51.462;6.692;2022-10-16T02:41:04;100884.38;;;15.39;72.31
9110;BME280;4590;51.462;6.692;2022-10-16T02:43:29;100900.34;;;15.42;72.31
9110;BME280;4590;51.462;6.692;2022-10-16T02:45:55;100885.88;;;15.36;72.16
9110;BME280;4590;51.462;6.692;2022-10-16T02:48:20;100889.13;;;15.38;71.83
9110;BME280;4590;51.462;6.692;2022-10-16T02:50:46;100880.50;;;15.31;72.53
9110;BME280;4590;51.462;6.692;2022-10-16T02:53:11;100879.69;;;15.31;72.53
9110;BME280;4590;51.462;6.692;2022-10-16T02:55:36;100883.81;;;15.25;72.56
9110;BME280;4590;51.462;6.692;2022-10-16T02:58:02;100882.78;;;15.29;72.41
9110;BME280;4590;51.462;6.692;2022-10-16T03:00:27;100891.09;;;15.29;72.44
9110;BME280;4590;51.462;6.692;2022-10-16T03:02:53;100882.53;;;15.14;72.89
9110;BME280;4590;51.462;6.692;2022-10-16T03:05:18;100896.66;;;15.29;72.04
9110;BME280;4590;51.462;6.692;2022-10-16T03:07:44;100892.59;;;15.27;72.21
9110;BME280;4590;51.462;6.692;2022-10-16T03:10:09;100891.44;;;15.28;72.25
9110;BME280;4590;51.462;6.692;2022-10-16T03:12:34;100902.19;;;15.29;71.97
9110;BME280;4590;51.462;6.692;2022-10-16T03:15:00;100899.75;;;15.28;72.01
9110;BME280;4590;51.462;6.692;2022-10-16T03:17:25;100890.63;;;15.27;71.89
9110;BME280;4590;51.462;6.692;2022-10-16T03:19:51;100888.66;;;15.28;72.05
9110;BME280;4590;51.462;6.692;2022-10-16T03:22:16;100891.44;;;15.28;71.92
9110;BME280;4590;51.462;6.692;2022-10-16T03:24:41;100894.69;;;15.30;71.89
9110;BME280;4590;51.462;6.692;2022-10-16T03:27:07;100889.16;;;15.30;71.54
9110;BME280;4590;51.462;6.692;2022-10-16T03:29:32;100894.69;;;15.30;71.72
9110;BME280;4590;51.462;6.692;2022-10-16T03:31:58;100887.03;;;15.27;71.73
9110;BME280;4590;51.462;6.692;2022-10-16T03:34:23;100881.16;;;15.28;71.84
9110;BME280;4590;51.462;6.692;2022-10-16T03:36:49;100884.75;;;15.29;71.68
9110;BME280;4590;51.462;6.692;2022-10-16T03:39:14;100882.78;;;15.29;71.41
9110;BME280;4590;51.462;6.692;2022-10-16T03:41:40;100886.25;;;15.26;71.53
9110;BME280;4590;51.462;6.692;2022-10-16T03:44:05;100891.91;;;15.30;71.39
9110;BME280;4590;51.462;6.692;2022-10-16T03:46:30;100896.16;;;15.27;71.61
9110;BME280;4590;51.462;6.692;2022-10-16T03:48:56;100899.75;;;15.28;71.38
9110;BME280;4590;51.462;6.692;2022-10-16T03:51:21;100921.00;;;15.24;71.49
9110;BME280;4590;51.462;6.692;2022-10-16T03:53:46;100917.53;;;15.27;71.12
9110;BME280;4590;51.462;6.692;2022-10-16T03:56:13;100910.84;;;15.28;71.30
9110;BME280;4590;51.462;6.692;2022-10-16T03:58:38;100911.53;;;15.25;71.37
9110;BME280;4590;51.462;6.692;2022-10-16T04:01:03;100901.25;;;15.25;71.48
9110;BME280;4590;51.462;6.692;2022-10-16T04:03:29;100901.25;;;15.25;71.31
9110;BME280;4590;51.462;6.692;2022-10-16T04:05:54;100904.84;;;15.26;71.42
9110;BME280;4590;51.462;6.692;2022-10-16T04:08:19;100902.72;;;15.23;71.50
9110;BME280;4590;51.462;6.692;2022-10-16T04:10:45;100911.53;;;15.25;71.22
9110;BME280;4590;51.462;6.692;2022-10-16T04:13:11;100913.50;;;15.24;71.04
9110;BME280;4590;51.462;6.692;2022-10-16T04:15:36;100910.38;;;15.26;71.06
9110;BME280;4590;51.462;6.692;2022-10-16T04:18:03;100918.72;;;15.26;70.94
9110;BME280;4590;51.462;6.692;2022-10-16T04:20:28;100918.22;;;15.24;71.21
9110;BME280;4590;51.462;6.692;2022-10-16T04:22:54;100913.34;;;15.21;71.21
9110;BME280;4590;51.462;6.692;2022-10-16T04:25:20;100921.31;;;15.22;71.02
9110;BME280;4590;51.462;6.692;2022-10-16T04:27:45;100928.50;;;15.23;71.14
9110;BME280;4590;51.462;6.692;2022-10-16T04:30:10;100929.63;;;15.22;70.98
9110;BME280;4590;51.462;6.692;2022-10-16T04:32:36;100936.31;;;15.21;71.01
9110;BME280;4590;51.462;6.692;2022-10-16T04:35:01;100940.72;;;15.22;71.06
9110;BME280;4590;51.462;6.692;2022-10-16T04:37:27;100948.72;;;15.24;70.93
9110;BME280;4590;51.462;6.692;2022-10-16T04:39:52;100949.84;;;15.23;70.87
9110;BME280;4590;51.462;6.692;2022-10-16T04:42:19;100950.66;;;15.23;70.81
9110;BME280;4590;51.462;6.692;2022-10-16T04:44:44;100943.81;;;15.21;70.73
9110;BME280;4590;51.462;6.692;2022-10-16T04:47:09;100949.38;;;15.21;70.90
9110;BME280;4590;51.462;6.692;2022-10-16T04:49:34;100951.66;;;15.19;70.98
9110;BME280;4590;51.462;6.692;2022-10-16T04:52:00;100949.38;;;15.21;70.81
9110;BME280;4590;51.462;6.692;2022-10-16T04:54:25;100958.34;;;15.18;71.02
9110;BME280;4590;51.462;6.692;2022-10-16T04:56:50;100958.03;;;15.19;70.81
9110;BME280;4590;51.462;6.692;2022-10-16T04:59:18;100964.22;;;15.16;70.87
9110;BME280;4590;51.462;6.692;2022-10-16T05:01:44;100960.63;;;15.16;70.84
9110;BME280;4590;51.462;6.692;2022-10-16T05:04:10;100982.00;;;15.15;70.95
9110;BME280;4590;51.462;6.692;2022-10-16T05:06:35;100971.09;;;15.10;71.05
9110;BME280;4590;51.462;6.692;2022-10-16T05:09:01;100971.72;;;15.16;70.78
9110;BME280;4590;51.462;6.692;2022-10-16T05:11:27;100987.22;;;15.17;70.80
9110;BME280;4590;51.462;6.692;2022-10-16T05:13:52;100975.69;;;15.06;71.22
9110;BME280;4590;51.462;6.692;2022-10-16T05:16:17;100975.97;;;15.13;71.40
9110;BME280;4590;51.462;6.692;2022-10-16T05:18:43;100983.94;;;15.15;70.96
9110;BME280;4590;51.462;6.692;2022-10-16T05:21:08;100983.94;;;15.15;70.95
9110;BME280;4590;51.462;6.692;2022-10-16T05:23:34;100986.72;;;15.15;70.77
9110;BME280;4590;51.462;6.692;2022-10-16T05:25:59;100987.03;;;15.13;71.29
9110;BME280;4590;51.462;6.692;2022-10-16T05:28:26;100984.75;;;15.15;70.97
9110;BME280;4590;51.462;6.692;2022-10-16T05:30:52;100992.59;;;15.13;71.31
9110;BME280;4590;51.462;6.692;2022-10-16T05:33:20;100998.47;;;15.12;70.93
9110;BME280;4590;51.462;6.692;2022-10-16T05:35:45;100988.69;;;15.14;71.24
9110;BME280;4590;51.462;6.692;2022-10-16T05:38:11;100989.50;;;15.15;71.25
9110;BME280;4590;51.462;6.692;2022-10-16T05:40:36;101001.22;;;15.12;71.30
9110;BME280;4590;51.462;6.692;2022-10-16T05:43:02;101006.94;;;15.15;71.24
9110;BME280;4590;51.462;6.692;2022-10-16T05:45:27;100999.75;;;15.14;71.40
9110;BME280;4590;51.462;6.692;2022-10-16T05:47:52;101004.16;;;15.15;71.47
9110;BME280;4590;51.462;6.692;2022-10-16T05:50:17;100999.44;;;15.16;71.42
9110;BME280;4590;51.462;6.692;2022-10-16T05:52:43;101013.28;;;15.16;71.15
9110;BME280;4590;51.462;6.692;2022-10-16T05:55:08;101030.25;;;15.14;71.45
9110;BME280;4590;51.462;6.692;2022-10-16T05:57:33;101030.25;;;15.14;71.50
9110;BME280;4590;51.462;6.692;2022-10-16T05:59:59;101028.13;;;15.11;71.48
9110;BME280;4590;51.462;6.692;2022-10-16T06:02:24;101026.53;;;15.10;71.42
9110;BME280;4590;51.462;6.692;2022-10-16T06:04:51;101039.22;;;15.11;71.29
9110;BME280;4590;51.462;6.692;2022-10-16T06:07:18;101038.44;;;15.11;71.48
9110;BME280;4590;51.462;6.692;2022-10-16T06:09:43;101033.53;;;15.07;71.51
9110;BME280;4590;51.462;6.692;2022-10-16T06:12:09;101041.53;;;15.09;71.99
9110;BME280;4590;51.462;6.692;2022-10-16T06:14:34;101045.28;;;15.04;71.67
9110;BME280;4590;51.462;6.692;2022-10-16T06:16:59;101039.41;;;15.06;71.75
9110;BME280;4590;51.462;6.692;2022-10-16T06:19:24;101040.56;;;15.05;71.69
9110;BME280;4590;51.462;6.692;2022-10-16T06:21:50;101051.81;;;15.08;71.59
9110;BME280;4590;51.462;6.692;2022-10-16T06:24:15;101055.38;;;15.09;71.21
9110;BME280;4590;51.462;6.692;2022-10-16T06:26:40;101058.50;;;15.07;71.83
9110;BME280;4590;51.462;6.692;2022-10-16T06:29:06;101054.56;;;15.08;71.69
9110;BME280;4590;51.462;6.692;2022-10-16T06:31:31;101051.81;;;15.08;71.66
9110;BME280;4590;51.462;6.692;2022-10-16T06:33:58;101056.66;;;15.12;71.53
9110;BME280;4590;51.462;6.692;2022-10-16T06:36:25;101068.25;;;15.14;71.54
9110;BME280;4590;51.462;6.692;2022-10-16T06:38:50;101070.19;;;15.13;71.79
9110;BME280;4590;51.462;6.692;2022-10-16T06:41:18;101073.28;;;15.12;71.93
9110;BME280;4590;51.462;6.692;2022-10-16T06:43:44;101087.66;;;15.14;71.93
9110;BME280;4590;51.462;6.692;2022-10-16T06:46:15;101084.72;;;15.19;71.65
9110;BME280;4590;51.462;6.692;2022-10-16T06:48:40;101088.63;;;15.18;71.96
9110;BME280;4590;51.462;6.692;2022-10-16T06:51:09;101100.84;;;15.17;71.70
9110;BME280;4590;51.462;6.692;2022-10-16T06:53:36;101104.44;;;15.17;71.74
9110;BME280;4590;51.462;6.692;2022-10-16T06:58:43;101121.56;;;15.19;71.67
9110;BME280;4590;51.462;6.692;2022-10-16T07:01:09;101129.06;;;15.19;71.80
9110;BME280;4590;51.462;6.692;2022-10-16T07:03:37;101132.47;;;15.16;72.18
9110;BME280;4590;51.462;6.692;2022-10-16T07:06:04;101130.69;;;15.20;71.93
9110;BME280;4590;51.462;6.692;2022-10-16T07:08:36;101143.72;;;15.19;72.04
9110;BME280;4590;51.462;6.692;2022-10-16T07:11:04;101151.41;;;15.22;71.91
9110;BME280;4590;51.462;6.692;2022-10-16T07:13:33;101149.78;;;15.21;71.81
9110;BME280;4590;51.462;6.692;2022-10-16T07:16:04;101160.53;;;15.23;71.75
9110;BME280;4590;51.462;6.692;2022-10-16T07:18:29;101159.38;;;15.24;71.86
9110;BME280;4590;51.462;6.692;2022-10-16T07:21:03;101159.38;;;15.24;71.80
9110;BME280;4590;51.462;6.692;2022-10-16T07:23:29;101161.16;;;15.28;72.00
9110;BME280;4590;51.462;6.692;2022-10-16T07:25:54;101161.31;;;15.32;72.22
9110;BME280;4590;51.462;6.692;2022-10-16T07:28:20;101162.31;;;15.36;72.44
9110;BME280;4590;51.462;6.692;2022-10-16T07:30:45;101158.22;;;15.42;72.60
9110;BME280;4590;51.462;6.692;2022-10-16T07:33:11;101160.84;;;15.56;72.39
9110;BME280;4590;51.462;6.692;2022-10-16T07:35:36;101164.56;;;15.68;72.30
9110;BME280;4590;51.462;6.692;2022-10-16T07:38:01;101173.81;;;15.81;72.43
9110;BME280;4590;51.462;6.692;2022-10-16T07:40:26;101179.97;;;15.95;72.03
9110;BME280;4590;51.462;6.692;2022-10-16T07:42:52;101186.13;;;16.09;72.38
9110;BME280;4590;51.462;6.692;2022-10-16T07:45:17;101185.25;;;16.26;72.09
9110;BME280;4590;51.462;6.692;2022-10-16T07:47:42;101179.44;;;16.40;71.74
9110;BME280;4590;51.462;6.692;2022-10-16T07:50:08;101192.91;;;16.59;71.62
9110;BME280;4590;51.462;6.692;2022-10-16T07:52:33;101202.13;;;16.80;71.22
9110;BME280;4590;51.462;6.692;2022-10-16T07:54:58;101195.31;;;16.98;71.12
9110;BME280;4590;51.462;6.692;2022-10-16T07:57:24;101211.03;;;17.15;70.49
9110;BME280;4590;51.462;6.692;2022-10-16T07:59:49;101208.47;;;17.31;70.11
9110;BME280;4590;51.462;6.692;2022-10-16T08:02:14;101215.03;;;17.47;69.72
9110;BME280;4590;51.462;6.692;2022-10-16T08:04:39;101216.84;;;17.64;69.30
9110;BME280;4590;51.462;6.692;2022-10-16T08:07:07;101212.69;;;17.70;68.53
9110;BME280;4590;51.462;6.692;2022-10-16T08:09:33;101208.69;;;17.92;68.49
9110;BME280;4590;51.462;6.692;2022-10-16T08:11:58;101218.13;;;18.11;67.81
9110;BME280;4590;51.462;6.692;2022-10-16T08:14:23;101232.78;;;18.33;67.83
9110;BME280;4590;51.462;6.692;2022-10-16T08:16:48;101231.28;;;18.47;66.89
9110;BME280;4590;51.462;6.692;2022-10-16T08:19:14;101234.22;;;18.63;66.79
9110;BME280;4590;51.462;6.692;2022-10-16T08:21:40;101249.53;;;18.81;66.10
9110;BME280;4590;51.462;6.692;2022-10-16T08:24:05;101237.81;;;18.88;65.83
9110;BME280;4590;51.462;6.692;2022-10-16T08:26:31;101253.56;;;19.08;65.46
9110;BME280;4590;51.462;6.692;2022-10-16T08:28:56;101253.09;;;19.18;64.62
9110;BME280;4590;51.462;6.692;2022-10-16T08:31:22;101256.84;;;19.38;64.42
9110;BME280;4590;51.462;6.692;2022-10-16T08:33:48;101259.66;;;19.50;63.59
9110;BME280;4590;51.462;6.692;2022-10-16T08:36:14;101261.78;;;19.69;63.41
9110;BME280;4590;51.462;6.692;2022-10-16T08:38:39;101266.16;;;19.82;62.60
9110;BME280;4590;51.462;6.692;2022-10-16T08:49:30;101290.19;;;20.43;61.93
9110;BME280;4590;51.462;6.692;2022-10-16T08:51:55;101289.41;;;20.30;56.52
9110;BME280;4590;51.462;6.692;2022-10-16T08:54:37;101289.72;;;20.56;58.91
9110;BME280;4590;51.462;6.692;2022-10-16T08:57:11;101290.16;;;20.74;60.10
9110;BME280;4590;51.462;6.692;2022-10-16T08:59:36;101296.91;;;20.89;60.14
9110;BME280;4590;51.462;6.692;2022-10-16T09:02:02;101299.06;;;20.80;55.59
9110;BME280;4590;51.462;6.692;2022-10-16T09:04:46;101297.34;;;21.07;58.44
9110;BME280;4590;51.462;6.692;2022-10-16T09:07:39;101300.50;;;21.21;55.81
9110;BME280;4590;51.462;6.692;2022-10-16T09:10:26;101311.66;;;21.37;55.88
9110;BME280;4590;51.462;6.692;2022-10-16T09:13:00;101299.72;;;21.59;57.91
9110;BME280;4590;51.462;6.692;2022-10-16T09:18:06;101313.38;;;21.80;56.21
9110;BME280;4590;51.462;6.692;2022-10-16T09:20:59;101311.91;;;21.86;53.31
9110;BME280;4590;51.462;6.692;2022-10-16T09:23:36;101308.72;;;22.07;55.52
9110;BME280;4590;51.462;6.692;2022-10-16T09:26:02;101317.75;;;22.16;55.54
9110;BME280;4590;51.462;6.692;2022-10-16T09:28:28;101319.63;;;22.31;55.21
9110;BME280;4590;51.462;6.692;2022-10-16T09:30:54;101317.81;;;22.19;51.63
9110;BME280;4590;51.462;6.692;2022-10-16T09:33:22;101317.38;;;22.40;54.87
9110;BME280;4590;51.462;6.692;2022-10-16T09:35:58;101321.81;;;22.41;53.15
9110;BME280;4590;51.462;6.692;2022-10-16T09:38:27;101325.38;;;22.61;54.44
9110;BME280;4590;51.462;6.692;2022-10-16T09:40:54;101319.47;;;22.66;54.19
9110;BME280;4590;51.462;6.692;2022-10-16T09:46:02;101331.88;;;22.88;53.17
9110;BME280;4590;51.462;6.692;2022-10-16T09:48:37;101322.63;;;22.87;50.43
9110;BME280;4590;51.462;6.692;2022-10-16T09:51:04;101328.44;;;22.98;53.06
9110;BME280;4590;51.462;6.692;2022-10-16T09:53:45;101326.03;;;23.00;50.80
9110;BME280;4590;51.462;6.692;2022-10-16T09:56:20;101331.09;;;23.14;52.42
9110;BME280;4590;51.462;6.692;2022-10-16T09:59:10;101323.44;;;23.14;48.52
9110;BME280;4590;51.462;6.692;2022-10-16T10:01:38;101321.91;;;23.43;51.25
9110;BME280;4590;51.462;6.692;2022-10-16T10:04:05;101322.06;;;23.54;50.95
9110;BME280;4590;51.462;6.692;2022-10-16T10:06:35;101325.31;;;23.56;49.57
9110;BME280;4590;51.462;6.692;2022-10-16T10:09:19;101330.59;;;23.61;49.84
9110;BME280;4590;51.462;6.692;2022-10-16T10:11:49;101318.59;;;23.64;49.68
9110;BME280;4590;51.462;6.692;2022-10-16T10:14:21;101323.06;;;23.68;46.71
9110;BME280;4590;51.462;6.692;2022-10-16T10:16:48;101318.47;;;23.87;48.72
9110;BME280;4590;51.462;6.692;2022-10-16T10:19:20;101318.59;;;23.97;47.89
9110;BME280;4590;51.462;6.692;2022-10-16T10:21:46;101329.94;;;24.04;47.66
9110;BME280;4590;51.462;6.692;2022-10-16T10:24:15;101332.38;;;24.09;47.60
9110;BME280;4590;51.462;6.692;2022-10-16T10:27:06;101318.66;;;24.01;45.83
9110;BME280;4590;51.462;6.692;2022-10-16T10:30:05;101329.34;;;23.88;44.72
9110;BME280;4590;51.462;6.692;2022-10-16T10:32:45;101332.97;;;23.89;45.50
9110;BME280;4590;51.462;6.692;2022-10-16T10:35:22;101324.97;;;23.94;46.53
9110;BME280;4590;51.462;6.692;2022-10-16T10:37:59;101347.56;;;24.01;47.74
9110;BME280;4590;51.462;6.692;2022-10-16T10:43:43;101338.88;;;24.13;47.30
9110;BME280;4590;51.462;6.692;2022-10-16T10:55:19;101349.25;;;24.39;43.59
9110;BME280;4590;51.462;6.692;2022-10-16T11:01:01;101340.97;;;24.57;44.25
9110;BME280;4590;51.462;6.692;2022-10-16T11:04:19;101344.56;;;24.54;42.86
9110;BME280;4590;51.462;6.692;2022-10-16T11:06:46;101345.44;;;24.62;44.00
9110;BME280;4590;51.462;6.692;2022-10-16T11:09:18;101341.97;;;24.79;45.25
9110;BME280;4590;51.462;6.692;2022-10-16T11:14:58;101345.25;;;24.88;42.49
9110;BME280;4590;51.462;6.692;2022-10-16T11:17:33;101342.16;;;24.97;42.70
9110;BME280;4590;51.462;6.692;2022-10-16T11:22:44;101355.31;;;24.89;42.48
9110;BME280;4590;51.462;6.692;2022-10-16T11:25:18;101346.44;;;24.83;43.99
9110;BME280;4590;51.462;6.692;2022-10-16T11:30:53;101357.69;;;24.39;44.06
9110;BME280;4590;51.462;6.692;2022-10-16T11:36:47;101355.66;;;24.06;44.70
9110;BME280;4590;51.462;6.692;2022-10-16T11:39:22;101358.97;;;23.82;44.67
9110;BME280;4590;51.462;6.692;2022-10-16T11:46:47;101364.56;;;23.52;45.02
9110;BME280;4590;51.462;6.692;2022-10-16T11:49:15;101360.44;;;23.46;45.62
9110;BME280;4590;51.462;6.692;2022-10-16T11:51:50;101368.63;;;23.28;44.42
9110;BME280;4590;51.462;6.692;2022-10-16T11:54:34;101375.94;;;23.10;44.94
9110;BME280;4590;51.462;6.692;2022-10-16T11:57:09;101372.31;;;23.09;45.99
9110;BME280;4590;51.462;6.692;2022-10-16T12:08:10;101381.94;;;22.86;45.73
9110;BME280;4590;51.462;6.692;2022-10-16T12:10:37;101383.13;;;22.85;46.99
9110;BME280;4590;51.462;6.692;2022-10-16T12:13:32;101386.38;;;22.67;45.84
9110;BME280;4590;51.462;6.692;2022-10-16T12:18:38;101383.09;;;22.62;47.06
9110;BME280;4590;51.462;6.692;2022-10-16T12:21:04;101383.03;;;22.58;46.26
9110;BME280;4590;51.462;6.692;2022-10-16T12:23:45;101382.94;;;22.55;47.23
9110;BME280;4590;51.462;6.692;2022-10-16T12:26:11;101376.41;;;22.47;46.72
9110;BME280;4590;51.462;6.692;2022-10-16T12:28:37;101373.91;;;22.23;44.82
9110;BME280;4590;51.462;6.692;2022-10-16T12:31:06;101377.53;;;22.23;46.47
9110;BME280;4590;51.462;6.692;2022-10-16T12:33:35;101383.16;;;22.23;46.84
9110;BME280;4590;51.462;6.692;2022-10-16T12:36:04;101385.88;;;22.20;46.82
9110;BME280;4590;51.462;6.692;2022-10-16T12:38:45;101385.75;;;22.13;46.16
9110;BME280;4590;51.462;6.692;2022-10-16T12:41:11;101384.47;;;22.10;47.10
9110;BME280;4590;51.462;6.692;2022-10-16T12:43:41;101380.06;;;22.09;46.95
9110;BME280;4590;51.462;6.692;2022-10-16T12:48:37;101380.28;;;22.00;46.96
9110;BME280;4590;51.462;6.692;2022-10-16T12:51:22;101390.34;;;21.86;46.78
9110;BME280;4590;51.462;6.692;2022-10-16T12:59:57;101392.84;;;21.72;47.22
9110;BME280;4590;51.462;6.692;2022-10-16T13:02:46;101386.63;;;21.62;47.92
9110;BME280;4590;51.462;6.692;2022-10-16T13:08:00;101384.84;;;21.54;48.19
9110;BME280;4590;51.462;6.692;2022-10-16T13:13:21;101383.31;;;21.41;48.02
9110;BME280;4590;51.462;6.692;2022-10-16T13:16:02;101382.91;;;21.39;47.76
9110;BME280;4590;51.462;6.692;2022-10-16T13:22:06;101391.94;;;21.32;48.01
9110;BME280;4590;51.462;6.692;2022-10-16T13:28:03;101388.66;;;21.15;47.49
9110;BME280;4590;51.462;6.692;2022-10-16T13:30:19;101407.09;;;21.16;47.29
9110;BME280;4590;51.462;6.692;2022-10-16T13:32:48;101404.06;;;21.21;48.55
9110;BME280;4590;51.462;6.692;2022-10-16T13:35:29;101402.31;;;21.16;48.48
9110;BME280;4590;51.462;6.692;2022-10-16T13:38:08;101403.47;;;21.15;48.72
9110;BME280;4590;51.462;6.692;2022-10-16T13:40:36;101398.47;;;21.21;48.88
9110;BME280;4590;51.462;6.692;2022-10-16T13:43:01;101391.69;;;21.22;48.91
9110;BME280;4590;51.462;6.692;2022-10-16T13:45:27;101396.59;;;21.13;49.01
9110;BME280;4590;51.462;6.692;2022-10-16T13:48:06;101404.06;;;21.21;49.15
9110;BME280;4590;51.462;6.692;2022-10-16T13:50:34;101402.22;;;21.28;49.61
9110;BME280;4590;51.462;6.692;2022-10-16T13:53:03;101387.84;;;21.14;48.80
9110;BME280;4590;51.462;6.692;2022-10-16T13:55:28;101386.59;;;21.27;49.64
9110;BME280;4590;51.462;6.692;2022-10-16T13:58:04;101401.72;;;21.23;48.99
9110;BME280;4590;51.462;6.692;2022-10-16T14:00:30;101403.50;;;21.31;49.79
9110;BME280;4590;51.462;6.692;2022-10-16T14:03:03;101407.00;;;21.28;49.67
9110;BME280;4590;51.462;6.692;2022-10-16T14:05:29;101404.75;;;21.33;49.59
9110;BME280;4590;51.462;6.692;2022-10-16T14:07:55;101402.88;;;21.22;49.97
9110;BME280;4590;51.462;6.692;2022-10-16T14:10:27;101416.66;;;21.30;49.79
9110;BME280;4590;51.462;6.692;2022-10-16T14:13:04;101427.41;;;21.28;49.76
9110;BME280;4590;51.462;6.692;2022-10-16T14:15:31;101423.44;;;21.29;49.87
9110;BME280;4590;51.462;6.692;2022-10-16T14:17:58;101425.53;;;21.32;50.17
9110;BME280;4590;51.462;6.692;2022-10-16T14:20:26;101428.31;;;21.32;50.24
9110;BME280;4590;51.462;6.692;2022-10-16T14:23:05;101413.78;;;21.27;49.68
9110;BME280;4590;51.462;6.692;2022-10-16T14:25:43;101399.88;;;21.30;50.67
9110;BME280;4590;51.462;6.692;2022-10-16T14:28:19;101388.75;;;21.18;50.81
9110;BME280;4590;51.462;6.692;2022-10-16T14:30:56;101400.97;;;21.26;50.93
9110;BME280;4590;51.462;6.692;2022-10-16T14:33:23;101405.47;;;21.30;51.67
9110;BME280;4590;51.462;6.692;2022-10-16T14:36:01;101402.22;;;21.28;51.11
9110;BME280;4590;51.462;6.692;2022-10-16T14:38:27;101405.56;;;21.34;51.64
9110;BME280;4590;51.462;6.692;2022-10-16T14:40:52;101416.50;;;21.23;51.24
9110;BME280;4590;51.462;6.692;2022-10-16T14:43:24;101421.47;;;21.30;50.62
9110;BME280;4590;51.462;6.692;2022-10-16T14:45:54;101415.13;;;21.33;51.00
9110;BME280;4590;51.462;6.692;2022-10-16T14:48:21;101419.13;;;21.32;50.97